Maclean, Virginia
Current Conditions -  °F | °C
As of 9:52 PM on Tuesday 25 Nov 2014 (Local Time) from KIAD Reporting Station
Overcast Overcast  
Wind Chill: 41°   Ceiling: 18000
Heat Index: 41°   Visibility: 10mi
Dew Point: 37°   Wind: 0mph
Humidity: 86%   Direction: NA
Pressure: 30.13"   Gusts: NA
Location:  38.9512°N, 77.2307°W
Report Text: KIAD 260252Z 00000KT 10SM BKN180 OVC250 05/03 A3013 RMK AO2 SLP205 T00500028 51010
Loading
Personal Weather Stations






























Interactive Weather Map New forecast layout! Learn more

10-Day Weather Forecast

Advertisements
Track Severe Weather on mobile